Time;durP1;ratioP1;P1;durP2;ratioP2;P2;SDS_P1;SDS_P2;PMS_P1;PMS_P2;Temp;Humidity;BMP_temperature;BMP_pressure;BME280_temperature;BME280_humidity;BME280_pressure;Samples;Min_cycle;Max_cycle;Signal;HPM_P1;HPM_P2
2023/03/22 00:01:52;;;;;;;7.10;3.70;;;;;;;17.91;57.14;100157.06;5046813;28;20191;-63
2023/03/22 00:04:18;;;;;;;5.33;3.20;;;;;;;17.93;56.87;100153.84;5071264;28;20179;-63
2023/03/22 00:06:44;;;;;;;6.07;3.77;;;;;;;17.90;57.14;100166.03;5059930;28;20462;-63
2023/03/22 00:09:10;;;;;;;5.57;3.70;;;;;;;17.88;56.91;100146.41;5051330;28;20302;-63
2023/03/22 00:11:36;;;;;;;6.23;3.80;;;;;;;17.90;57.02;100143.19;5049060;28;20185;-63
2023/03/22 00:14:01;;;;;;;5.77;3.60;;;;;;;17.88;57.15;100132.13;5033280;28;20961;-63
2023/03/22 00:16:26;;;;;;;9.93;4.20;;;;;;;17.88;57.05;100137.84;5048963;28;20163;-63
2023/03/22 00:18:52;;;;;;;5.93;3.53;;;;;;;17.87;57.03;100141.91;5030966;28;20164;-63
2023/03/22 00:21:17;;;;;;;5.50;3.73;;;;;;;17.87;57.14;100136.22;5051402;28;20187;-63
2023/03/22 00:23:43;;;;;;;8.03;3.50;;;;;;;17.87;57.11;100135.38;5053681;28;20176;-63
2023/03/22 00:26:09;;;;;;;4.70;3.30;;;;;;;17.86;57.17;100130.88;5030955;28;20167;-63
2023/03/22 00:28:35;;;;;;;5.50;3.40;;;;;;;17.87;57.15;100130.50;5051313;28;20187;-63
2023/03/22 00:31:00;;;;;;;7.40;3.77;;;;;;;17.87;57.24;100130.50;5050263;28;21236;-63
2023/03/22 00:33:29;;;;;;;6.70;3.80;;;;;;;17.87;57.14;100121.94;5063772;28;20201;-63
2023/03/22 00:35:59;;;;;;;7.80;4.20;;;;;;;17.89;57.00;100125.22;5069414;28;20545;-63
2023/03/22 00:38:25;;;;;;;6.60;3.27;;;;;;;17.89;57.12;100125.22;5067387;28;20449;-63
2023/03/22 00:40:50;;;;;;;7.17;3.33;;;;;;;17.88;56.93;100129.28;5067768;28;20457;-63
2023/03/22 00:43:16;;;;;;;6.13;3.10;;;;;;;17.88;57.19;100119.88;5069288;28;20191;-63
2023/03/22 00:45:41;;;;;;;8.17;3.90;;;;;;;17.86;57.22;100120.25;5057820;28;20224;-63
2023/03/22 00:48:09;;;;;;;6.37;3.53;;;;;;;17.86;57.07;100123.09;5048622;28;20222;-63
2023/03/22 00:50:36;;;;;;;5.17;2.90;;;;;;;17.86;57.33;100116.59;5018649;28;20200;-63
2023/03/22 00:53:01;;;;;;;6.03;3.90;;;;;;;17.86;57.30;100114.53;5049585;28;20444;-63
2023/03/22 00:55:27;;;;;;;5.17;3.60;;;;;;;17.86;57.23;100114.53;5064874;28;20433;-63
2023/03/22 00:57:52;;;;;;;6.30;3.33;;;;;;;17.86;56.69;100111.69;5050627;28;20186;-63
2023/03/22 01:00:18;;;;;;;6.63;3.60;;;;;;;17.85;57.23;100107.19;5049633;28;20180;-63
2023/03/22 01:02:43;;;;;;;7.63;3.53;;;;;;;17.83;57.21;100103.91;5066654;28;20194;-63
2023/03/22 01:05:14;;;;;;;6.10;3.30;;;;;;;17.81;57.15;100105.50;5078717;28;20171;-63
2023/03/22 01:07:40;;;;;;;5.83;3.40;;;;;;;17.85;56.93;100098.63;5066173;28;20692;-63
2023/03/22 01:10:07;;;;;;;6.03;3.00;;;;;;;17.83;57.09;100098.19;5064545;28;20479;-63
2023/03/22 01:12:32;;;;;;;4.90;3.20;;;;;;;17.84;57.38;100096.97;5069312;28;20471;-63
2023/03/22 01:14:57;;;;;;;5.13;3.33;;;;;;;17.85;57.11;100092.91;5064814;28;20434;-63
2023/03/22 01:17:23;;;;;;;5.03;3.47;;;;;;;17.84;57.07;100088.41;5055138;28;20163;-63
2023/03/22 01:19:48;;;;;;;5.10;3.10;;;;;;;17.87;57.03;100081.09;5052262;28;20190;-63
2023/03/22 01:22:14;;;;;;;6.10;3.20;;;;;;;17.89;57.21;100076.66;5073190;28;20167;-63
2023/03/22 01:24:39;;;;;;;4.33;3.20;;;;;;;17.87;57.13;100069.69;5073017;28;20175;-63
2023/03/22 01:27:05;;;;;;;6.03;3.40;;;;;;;17.86;57.52;100076.59;5067805;28;20192;-63
2023/03/22 01:29:30;;;;;;;7.77;2.83;;;;;;;17.85;57.20;100061.50;5052753;28;20195;-63
2023/03/22 01:31:56;;;;;;;5.47;3.23;;;;;;;17.84;57.15;100070.44;5061344;28;20186;-63
2023/03/22 01:34:21;;;;;;;6.13;3.40;;;;;;;17.85;57.15;100066.41;5071213;28;20197;-63
2023/03/22 01:36:46;;;;;;;6.10;3.10;;;;;;;17.84;57.26;100062.72;5072894;28;20182;-63
2023/03/22 01:39:12;;;;;;;5.53;2.60;;;;;;;17.84;57.09;100062.72;5072808;28;20614;-63
2023/03/22 01:41:37;;;;;;;4.77;3.27;;;;;;;17.86;57.36;100070.91;5070805;28;20179;-63
2023/03/22 01:44:17;;;;;;;4.30;3.17;;;;;;;17.85;57.26;100069.25;5053124;28;20203;-63
2023/03/22 01:46:44;;;;;;;7.03;3.13;;;;;;;17.83;57.14;100058.22;5052451;28;20288;-63
2023/03/22 01:49:16;;;;;;;4.13;2.53;;;;;;;17.81;57.20;100054.91;5052301;28;20450;-63
2023/03/22 01:51:42;;;;;;;4.90;3.00;;;;;;;17.84;57.38;100061.88;5055106;28;20430;-63
2023/03/22 01:54:09;;;;;;;6.17;2.87;;;;;;;17.82;57.38;100070.84;5034441;28;20460;-63
2023/03/22 01:56:38;;;;;;;5.17;3.30;;;;;;;17.80;57.28;100056.09;5034705;28;20242;-63
2023/03/22 01:59:03;;;;;;;6.93;3.13;;;;;;;17.77;57.82;100062.59;5053062;28;20487;-63
2023/03/22 02:01:29;;;;;;;5.63;3.30;;;;;;;17.80;57.19;100058.97;5037927;28;20441;-63
2023/03/22 02:04:03;;;;;;;5.27;3.53;;;;;;;17.80;57.14;100069.56;5034150;28;20180;-63
2023/03/22 02:06:31;;;;;;;5.27;3.37;;;;;;;17.79;57.11;100062.19;5052314;28;20207;-63
2023/03/22 02:08:57;;;;;;;5.77;3.03;;;;;;;17.79;57.62;100065.88;5034979;28;20536;-63
2023/03/22 02:11:51;;;;;;;4.70;2.90;;;;;;;17.80;57.32;100058.97;5052131;28;20432;-63
2023/03/22 02:14:28;;;;;;;3.90;2.77;;;;;;;17.78;57.35;100051.97;5049609;28;20445;-63
2023/03/22 02:17:29;;;;;;;4.50;3.17;;;;;;;17.76;57.25;100060.94;5037495;28;20441;-62
2023/03/22 02:20:14;;;;;;;3.80;2.30;;;;;;;17.75;57.21;100062.13;5035851;28;20476;-62
2023/03/22 02:22:52;;;;;;;5.20;3.23;;;;;;;17.77;57.27;100053.19;5051926;28;20398;-62
2023/03/22 02:25:35;;;;;;;4.70;2.67;;;;;;;17.76;57.49;100051.56;5050780;28;20420;-62
2023/03/22 02:28:06;;;;;;;5.10;2.67;;;;;;;17.75;57.70;100047.88;5051857;28;20406;-62
2023/03/22 02:30:57;;;;;;;4.20;2.57;;;;;;;17.76;57.37;100051.56;5060451;28;20464;-62
2023/03/22 02:33:44;;;;;;;5.03;2.97;;;;;;;17.74;57.77;100048.25;5068883;28;20415;-62
2023/03/22 02:36:25;;;;;;;5.50;3.10;;;;;;;17.74;57.38;100049.06;5056803;28;20515;-62
2023/03/22 02:38:59;;;;;;;5.23;3.00;;;;;;;17.74;57.59;100049.06;5017991;28;20413;-62
2023/03/22 02:41:32;;;;;;;4.60;2.90;;;;;;;17.76;57.04;100052.34;5036555;28;20449;-62
2023/03/22 02:44:00;;;;;;;5.43;3.43;;;;;;;17.79;57.51;100047.91;5033591;28;20811;-62
2023/03/22 02:46:29;;;;;;;7.27;3.50;;;;;;;17.79;57.55;100045.91;5062167;28;20496;-62
2023/03/22 02:49:30;;;;;;;4.50;2.73;;;;;;;17.77;57.23;100051.19;5071333;28;20991;-61
2023/03/22 02:52:09;;;;;;;4.90;2.70;;;;;;;17.77;57.45;100053.19;5039861;28;20425;-62
2023/03/22 02:54:42;;;;;;;4.73;3.00;;;;;;;17.78;57.34;100057.69;5068055;28;20931;-62
2023/03/22 02:57:10;;;;;;;4.30;3.00;;;;;;;17.78;57.33;100043.41;5036365;28;20428;-62
2023/03/22 02:59:37;;;;;;;4.67;3.20;;;;;;;17.79;57.09;100040.19;5038061;28;20437;-62
2023/03/22 03:02:02;;;;;;;4.83;2.83;;;;;;;17.77;57.11;100038.91;5035353;28;20425;-62
2023/03/22 03:04:30;;;;;;;4.63;2.70;;;;;;;17.77;56.95;100036.91;5038808;28;20523;-62
2023/03/22 03:06:57;;;;;;;4.17;3.00;;;;;;;17.77;57.08;100039.75;5041372;28;20309;-62
2023/03/22 03:09:23;;;;;;;4.47;2.60;;;;;;;17.78;57.41;100032.84;5021086;28;20616;-62
2023/03/22 03:11:52;;;;;;;4.00;2.63;;;;;;;17.77;57.62;100036.91;5051069;28;20403;-62
2023/03/22 03:14:28;;;;;;;4.47;3.10;;;;;;;17.79;57.46;100037.34;5054013;28;20224;-62
2023/03/22 03:17:10;;;;;;;6.10;2.90;;;;;;;17.77;57.12;100036.91;5068121;28;20421;-62
2023/03/22 03:19:40;;;;;;;3.70;2.50;;;;;;;17.79;56.94;100036.50;5067094;28;20429;-62
2023/03/22 03:22:14;;;;;;;3.30;2.40;;;;;;;17.76;56.85;100043.78;5032976;28;20418;-62
2023/03/22 03:25:12;;;;;;;4.93;2.93;;;;;;;17.76;57.12;100038.09;5032400;28;20426;-63
2023/03/22 03:27:48;;;;;;;4.60;2.30;;;;;;;17.78;57.23;100037.72;5033705;28;20446;-63
2023/03/22 03:30:31;;;;;;;4.47;2.80;;;;;;;17.77;57.08;100034.06;5050177;28;20485;-63
2023/03/22 03:33:03;;;;;;;4.13;2.63;;;;;;;17.75;57.44;100038.50;5067611;28;20975;-63
2023/03/22 03:35:31;;;;;;;4.80;3.07;;;;;;;17.76;57.45;100046.66;5062059;28;20450;-63
2023/03/22 03:38:08;;;;;;;4.90;3.00;;;;;;;17.74;57.30;100051.09;5050528;28;20422;-63
2023/03/22 03:40:40;;;;;;;3.80;2.57;;;;;;;17.71;57.42;100049.81;5023931;28;20420;-63
2023/03/22 03:43:05;;;;;;;4.10;2.30;;;;;;;17.71;57.31;100051.88;5052761;28;20405;-63
2023/03/22 03:45:31;;;;;;;3.97;2.63;;;;;;;17.71;57.21;100057.59;5054935;28;20426;-63
2023/03/22 03:47:59;;;;;;;4.00;2.57;;;;;;;17.72;57.43;100050.66;5025718;28;20272;-63
2023/03/22 03:50:24;;;;;;;3.47;2.30;;;;;;;17.70;57.30;100056.75;5052459;28;20907;-63
2023/03/22 03:52:50;;;;;;;3.63;2.57;;;;;;;17.70;57.73;100050.22;5050245;28;20483;-62
2023/03/22 03:55:16;;;;;;;3.70;2.37;;;;;;;17.71;57.20;100049.81;5050252;28;20160;-62
2023/03/22 03:57:41;;;;;;;4.00;2.70;;;;;;;17.71;57.37;100049.03;5031904;28;20441;-63
2023/03/22 04:00:08;;;;;;;6.60;3.50;;;;;;;17.70;57.29;100056.75;5050047;28;20921;-63
2023/03/22 04:02:33;;;;;;;4.10;2.80;;;;;;;17.68;57.43;100052.63;5054045;28;20180;-63
2023/03/22 04:04:59;;;;;;;3.23;2.33;;;;;;;17.68;57.35;100044.06;5049686;28;21011;-63
2023/03/22 04:07:24;;;;;;;3.80;2.43;;;;;;;17.67;57.07;100040.41;5032605;28;20257;-63
2023/03/22 04:09:50;;;;;;;3.77;2.43;;;;;;;17.66;57.30;100044.44;5033371;28;20215;-63
2023/03/22 04:12:15;;;;;;;4.40;2.77;;;;;;;17.66;57.44;100040.78;5049923;28;20246;-63
2023/03/22 04:14:41;;;;;;;4.07;2.37;;;;;;;17.67;57.38;100048.97;5052072;28;20188;-63
2023/03/22 04:17:07;;;;;;;3.67;2.23;;;;;;;17.65;57.26;100042.78;5049803;28;20198;-63
2023/03/22 04:19:33;;;;;;;4.97;2.53;;;;;;;17.66;57.30;100041.59;5058939;28;20179;-63
2023/03/22 04:21:59;;;;;;;3.90;2.57;;;;;;;17.66;57.34;100047.28;5068800;28;20430;-63
2023/03/22 04:24:24;;;;;;;4.10;2.47;;;;;;;17.67;57.14;100042.41;5060117;28;20669;-63
2023/03/22 04:26:51;;;;;;;3.67;2.30;;;;;;;17.67;57.28;100037.53;5030520;28;20426;-63
2023/03/22 04:29:16;;;;;;;4.50;2.80;;;;;;;17.68;57.06;100042.03;5051086;28;20195;-63
2023/03/22 04:31:42;;;;;;;4.10;2.97;;;;;;;17.69;57.33;100040.84;5057905;28;20443;-63
2023/03/22 04:34:07;;;;;;;4.97;2.57;;;;;;;17.73;57.05;100030.31;5068386;28;20183;-63
2023/03/22 04:36:38;;;;;;;3.90;2.40;;;;;;;17.72;57.05;100019.25;5059825;28;20571;-63
2023/03/22 04:39:10;;;;;;;3.77;2.40;;;;;;;17.72;57.10;100028.66;5038718;28;20195;-63
2023/03/22 04:41:36;;;;;;;4.10;2.67;;;;;;;17.73;57.20;100021.75;5067286;28;20848;-63
2023/03/22 04:44:04;;;;;;;4.23;2.40;;;;;;;17.71;57.14;100015.56;5050301;28;20441;-63
2023/03/22 04:46:30;;;;;;;3.90;2.47;;;;;;;17.71;57.02;100018.41;5068696;28;20232;-63
2023/03/22 04:48:56;;;;;;;4.47;2.90;;;;;;;17.72;56.99;100007.84;5068420;28;20437;-63
2023/03/22 04:51:21;;;;;;;3.43;2.30;;;;;;;17.72;57.67;100011.53;5073385;28;20630;-63
2023/03/22 04:53:47;;;;;;;5.10;2.40;;;;;;;17.73;57.20;100007.47;5070381;28;20182;-63
2023/03/22 04:56:12;;;;;;;4.73;2.37;;;;;;;17.69;56.99;100014.31;5053297;28;20164;-63
2023/03/22 04:58:41;;;;;;;4.30;2.43;;;;;;;17.73;57.24;100013.16;5053475;28;20296;-63
2023/03/22 05:01:08;;;;;;;4.20;2.70;;;;;;;17.73;57.04;100012.34;5057168;28;20198;-63
2023/03/22 05:03:33;;;;;;;4.90;2.60;;;;;;;17.69;57.32;100009.44;5073237;28;20406;-63
2023/03/22 05:06:00;;;;;;;3.27;2.03;;;;;;;17.69;56.98;100015.13;5077297;28;20465;-63
2023/03/22 05:08:26;;;;;;;3.30;2.10;;;;;;;17.70;57.35;100013.13;5058906;28;20275;-63
2023/03/22 05:10:52;;;;;;;4.20;2.13;;;;;;;17.69;57.32;100009.44;5073264;28;20488;-63
2023/03/22 05:13:19;;;;;;;2.90;2.10;;;;;;;17.66;57.22;100010.19;5057083;28;20438;-63
2023/03/22 05:15:46;;;;;;;2.90;2.07;;;;;;;17.67;57.28;100011.00;5035045;28;20399;-63
2023/03/22 05:18:13;;;;;;;4.00;2.50;;;;;;;17.65;57.10;100011.41;5055583;28;20792;-63
2023/03/22 05:20:39;;;;;;;3.60;2.23;;;;;;;17.67;57.35;100014.72;5063502;28;20439;-63
2023/03/22 05:23:05;;;;;;;3.50;2.27;;;;;;;17.66;57.37;100012.22;5072833;28;20496;-63
2023/03/22 05:25:30;;;;;;;4.30;2.43;;;;;;;17.66;57.61;100020.78;5069405;28;20912;-63
2023/03/22 05:28:00;;;;;;;3.13;2.27;;;;;;;17.67;57.19;100022.44;5072815;28;20710;-63
2023/03/22 05:30:29;;;;;;;3.50;2.23;;;;;;;17.69;57.32;100018.00;5063902;28;20281;-63
2023/03/22 05:33:01;;;;;;;3.53;2.33;;;;;;;17.65;57.10;100027.72;5068562;28;20786;-64
2023/03/22 05:35:27;;;;;;;3.27;2.30;;;;;;;17.66;57.52;100035.88;5049961;28;20433;-64
2023/03/22 05:37:53;;;;;;;3.40;2.10;;;;;;;17.63;57.09;100025.22;5053202;28;20429;-63
2023/03/22 05:40:18;;;;;;;3.83;2.50;;;;;;;17.63;57.84;100030.94;5052663;28;20402;-63
2023/03/22 05:42:44;;;;;;;3.60;2.37;;;;;;;17.63;57.31;100030.94;5036809;28;20704;-62
2023/03/22 05:45:10;;;;;;;2.80;2.00;;;;;;;17.62;56.98;100029.31;5052944;28;20175;-63
2023/03/22 05:47:38;;;;;;;3.10;2.20;;;;;;;17.63;56.95;100030.09;5069557;28;20227;-62
2023/03/22 05:50:05;;;;;;;3.97;2.77;;;;;;;17.66;57.43;100029.34;5053641;28;20537;-62
2023/03/22 05:52:30;;;;;;;4.17;2.57;;;;;;;17.65;57.20;100037.09;5071561;28;21281;-62
2023/03/22 05:54:56;;;;;;;4.13;2.50;;;;;;;17.65;57.17;100025.66;5063829;28;20434;-63
2023/03/22 05:57:21;;;;;;;4.00;2.50;;;;;;;17.65;57.11;100030.56;5051344;28;20160;-63
2023/03/22 05:59:47;;;;;;;3.70;2.47;;;;;;;17.66;57.13;100035.88;5051732;28;20168;-63
2023/03/22 06:02:12;;;;;;;3.33;2.20;;;;;;;17.69;57.27;100031.44;5047213;28;20190;-63
2023/03/22 06:04:40;;;;;;;6.83;2.47;;;;;;;17.67;57.19;100031.00;5077202;28;20216;-63
2023/03/22 06:07:06;;;;;;;3.60;2.53;;;;;;;17.67;57.21;100036.72;5092402;28;20190;-63
2023/03/22 06:09:31;;;;;;;4.30;2.53;;;;;;;17.69;57.04;100037.97;5089266;28;21034;-63
2023/03/22 06:11:57;;;;;;;3.40;1.87;;;;;;;17.69;56.91;100029.41;5069544;28;20224;-63
2023/03/22 06:14:23;;;;;;;2.80;2.10;;;;;;;17.70;57.00;100031.06;5072017;28;20267;-63
2023/03/22 06:16:48;;;;;;;4.20;2.50;;;;;;;17.71;56.68;100032.69;5060298;28;20659;-63
2023/03/22 06:19:14;;;;;;;3.10;2.03;;;;;;;17.71;57.06;100038.41;5052246;28;20545;-63
2023/03/22 06:21:39;;;;;;;3.73;2.00;;;;;;;17.72;56.71;100030.69;5054400;28;20182;-63
2023/03/22 06:24:05;;;;;;;3.97;2.00;;;;;;;17.76;56.44;100034.44;5052074;28;20603;-63
2023/03/22 06:26:30;;;;;;;3.40;2.10;;;;;;;17.74;56.96;100025.41;5065609;28;20549;-63
2023/03/22 06:28:56;;;;;;;3.03;1.97;;;;;;;17.74;56.99;100020.53;5067480;28;20606;-63
2023/03/22 06:31:22;;;;;;;2.87;2.00;;;;;;;17.72;57.57;100022.94;5071462;28;20178;-63
2023/03/22 06:33:47;;;;;;;3.40;2.20;;;;;;;17.70;56.94;100027.41;5067954;28;20183;-63
2023/03/22 06:36:12;;;;;;;2.93;1.97;;;;;;;17.74;56.70;100034.81;5071626;28;20190;-63
2023/03/22 06:38:38;;;;;;;3.10;2.10;;;;;;;17.74;56.92;100042.53;5071437;28;20543;-63
2023/03/22 06:41:04;;;;;;;2.87;1.87;;;;;;;17.75;57.14;100033.59;5039553;28;20176;-63
2023/03/22 06:43:29;;;;;;;2.83;1.97;;;;;;;17.73;56.94;100038.88;5052845;28;20187;-63
2023/03/22 06:45:56;;;;;;;4.57;2.83;;;;;;;17.71;57.36;100044.13;5054470;28;20231;-63
2023/03/22 06:48:21;;;;;;;3.00;2.10;;;;;;;17.70;57.73;100048.19;5069527;28;20179;-63
2023/03/22 06:50:47;;;;;;;4.60;2.33;;;;;;;17.71;57.11;100049.03;5071121;28;20457;-63
2023/03/22 06:53:12;;;;;;;4.30;2.37;;;;;;;17.70;57.14;100048.19;5049569;28;20226;-63
2023/03/22 06:55:39;;;;;;;3.13;2.13;;;;;;;17.70;57.48;100058.78;5071167;28;20172;-63
2023/03/22 06:58:05;;;;;;;3.30;2.03;;;;;;;17.72;56.91;100045.78;5065310;28;20187;-63
2023/03/22 07:00:31;;;;;;;3.13;2.00;;;;;;;17.71;57.13;100058.38;5051232;28;20418;-63
2023/03/22 07:02:57;;;;;;;3.23;1.90;;;;;;;17.71;57.00;100060.44;5067041;28;20645;-63
2023/03/22 07:05:23;;;;;;;3.90;2.10;;;;;;;17.70;57.21;100061.66;5081449;28;20939;-63
2023/03/22 07:07:48;;;;;;;3.40;1.90;;;;;;;17.69;56.93;100062.84;5067957;28;20487;-63
2023/03/22 07:10:14;;;;;;;3.20;1.97;;;;;;;17.71;56.79;100058.38;5059069;28;20202;-63
2023/03/22 07:12:39;;;;;;;3.83;2.73;;;;;;;17.70;57.09;100053.91;5066712;28;20831;-64
2023/03/22 07:15:05;;;;;;;3.43;2.13;;;;;;;17.72;56.85;100054.34;5049993;28;20906;-63
2023/03/22 07:17:31;;;;;;;3.00;2.00;;;;;;;17.73;57.43;100063.72;5050292;28;20176;-63
2023/03/22 07:19:56;;;;;;;3.93;2.50;;;;;;;17.67;56.67;100059.53;5035225;28;20211;-63
2023/03/22 07:22:23;;;;;;;3.37;2.03;;;;;;;17.69;57.20;100063.66;5069382;28;20171;-63
2023/03/22 07:24:49;;;;;;;4.80;2.03;;;;;;;17.69;57.33;100059.97;5070622;28;20232;-63
2023/03/22 07:27:15;;;;;;;2.90;2.00;;;;;;;17.72;56.91;100057.22;5070466;28;20885;-63
2023/03/22 07:29:40;;;;;;;3.80;2.30;;;;;;;17.69;57.13;100052.25;5035997;28;20330;-63
2023/03/22 07:32:06;;;;;;;3.70;2.27;;;;;;;17.70;56.90;100053.09;5048579;28;20185;-63
2023/03/22 07:34:31;;;;;;;4.30;2.10;;;;;;;17.72;57.02;100059.22;5043388;28;20187;-63
2023/03/22 07:36:57;;;;;;;4.03;2.20;;;;;;;17.72;56.89;100062.91;5049992;28;20164;-63
2023/03/22 07:39:26;;;;;;;3.57;2.23;;;;;;;17.73;57.20;100058.84;5050286;28;20160;-63
2023/03/22 07:41:51;;;;;;;3.27;1.80;;;;;;;17.74;56.77;100063.34;5034001;28;20529;-63
2023/03/22 07:44:17;;;;;;;2.97;1.90;;;;;;;17.73;56.64;100064.56;5050167;28;20434;-63
2023/03/22 07:46:42;;;;;;;3.43;2.10;;;;;;;17.74;56.79;100066.22;5063385;28;20238;-63
2023/03/22 07:49:07;;;;;;;3.10;1.97;;;;;;;17.73;57.17;100067.41;5070121;28;20198;-63
2023/03/22 07:51:33;;;;;;;3.30;2.00;;;;;;;17.73;56.69;100067.41;5068520;28;20217;-63
2023/03/22 07:53:59;;;;;;;2.97;2.07;;;;;;;17.70;56.83;100068.16;5052525;28;20198;-63
2023/03/22 07:56:25;;;;;;;3.00;2.23;;;;;;;17.70;56.83;100071.03;5015804;28;20175;-63
2023/03/22 07:58:50;;;;;;;3.23;2.10;;;;;;;17.75;56.71;100078.47;5060288;28;20444;-63
2023/03/22 08:01:15;;;;;;;2.70;2.10;;;;;;;17.75;56.74;100067.03;5052819;28;20634;-63
2023/03/22 08:03:41;;;;;;;3.07;2.00;;;;;;;17.77;56.35;100071.16;5067195;28;20209;-63
2023/03/22 08:06:07;;;;;;;3.60;2.33;;;;;;;17.80;56.15;100070.38;5089301;28;20213;-63
2023/03/22 08:08:33;;;;;;;3.67;2.40;;;;;;;17.77;56.32;100058.91;5091123;28;20182;-63
2023/03/22 08:10:59;;;;;;;3.23;2.00;;;;;;;17.75;56.29;100061.34;5061531;28;20561;-63
2023/03/22 08:13:24;;;;;;;4.13;2.30;;;;;;;17.76;56.65;100060.94;5050504;28;20411;-63
2023/03/22 08:15:50;;;;;;;3.50;2.07;;;;;;;17.76;56.39;100055.22;5053339;28;20267;-63
2023/03/22 08:18:15;;;;;;;3.13;2.10;;;;;;;17.77;56.37;100053.19;5071581;28;20159;-63
2023/03/22 08:20:44;;;;;;;2.40;1.70;;;;;;;17.78;56.56;100052.81;5070816;28;20538;-63
2023/03/22 08:23:14;;;;;;;2.90;1.80;;;;;;;17.76;56.58;100058.06;5066954;28;20187;-63
2023/03/22 08:25:40;;;;;;;3.50;2.00;;;;;;;17.76;56.66;100058.06;5069756;28;20410;-63
2023/03/22 08:28:06;;;;;;;2.63;1.80;;;;;;;17.77;56.63;100056.88;5066716;28;20433;-63
2023/03/22 08:30:31;;;;;;;4.63;2.30;;;;;;;17.74;56.93;100049.06;5050963;28;20464;-63
2023/03/22 08:32:57;;;;;;;3.43;2.20;;;;;;;17.75;56.57;100050.72;5051373;28;20187;-63
2023/03/22 08:35:22;;;;;;;3.77;2.30;;;;;;;17.77;56.63;100053.19;5052833;28;20628;-63
2023/03/22 08:37:48;;;;;;;2.93;1.90;;;;;;;17.77;56.60;100048.31;5049073;28;20643;-63
2023/03/22 08:40:14;;;;;;;2.57;1.73;;;;;;;17.75;56.25;100052.78;5035677;28;20646;-63
2023/03/22 08:42:39;;;;;;;3.20;2.07;;;;;;;17.75;56.21;100045.00;5069130;28;20658;-63
2023/03/22 08:45:05;;;;;;;3.10;1.80;;;;;;;17.76;56.72;100052.34;5069117;28;20432;-63
2023/03/22 08:47:30;;;;;;;3.00;1.87;;;;;;;17.73;56.71;100056.00;5069402;28;20229;-63
2023/03/22 08:49:56;;;;;;;2.90;2.00;;;;;;;17.74;56.59;100053.94;5056352;28;20545;-63
2023/03/22 08:52:21;;;;;;;2.50;1.73;;;;;;;17.78;56.89;100049.13;5064231;28;20167;-63
2023/03/22 08:54:47;;;;;;;2.80;1.70;;;;;;;17.76;56.39;100058.06;5067398;28;20237;-63
2023/03/22 08:57:13;;;;;;;2.90;1.70;;;;;;;17.76;56.81;100040.94;5058090;28;20184;-63
2023/03/22 08:59:39;;;;;;;3.03;1.80;;;;;;;17.75;56.54;100045.00;5049752;28;20161;-63
2023/03/22 09:02:04;;;;;;;3.50;2.00;;;;;;;17.77;56.42;100039.75;5062255;28;20491;-63
2023/03/22 09:04:30;;;;;;;2.77;1.90;;;;;;;17.74;56.45;100040.50;5069812;28;20588;-63
2023/03/22 09:06:55;;;;;;;3.60;1.90;;;;;;;17.75;56.93;100036.44;5065494;28;20206;-63
2023/03/22 09:09:21;;;;;;;3.13;2.00;;;;;;;17.76;56.62;100028.72;5069502;28;20191;-63
2023/03/22 09:11:46;;;;;;;3.17;1.83;;;;;;;17.78;56.59;100032.84;5068993;28;20178;-63
2023/03/22 09:14:12;;;;;;;2.60;1.70;;;;;;;17.76;56.70;100023.00;5069073;28;20163;-63
2023/03/22 09:16:37;;;;;;;3.47;1.87;;;;;;;17.77;56.58;100014.06;5061060;28;20184;-63
2023/03/22 09:19:02;;;;;;;5.50;1.90;;;;;;;17.76;56.40;100020.94;5050231;28;20165;-63
2023/03/22 09:21:31;;;;;;;3.67;2.37;;;;;;;17.77;56.58;100011.22;5033331;28;20279;-63
2023/03/22 09:23:56;;;;;;;2.30;1.70;;;;;;;17.75;56.50;100016.47;5051725;28;20206;-63
2023/03/22 09:26:23;;;;;;;2.40;1.80;;;;;;;17.75;56.47;100007.88;5049052;28;20403;-63
2023/03/22 09:28:48;;;;;;;3.60;2.00;;;;;;;17.73;56.44;100006.63;5034084;28;20194;-63
2023/03/22 09:31:14;;;;;;;2.90;1.93;;;;;;;17.73;56.71;100000.91;5052934;28;20460;-63
2023/03/22 09:33:40;;;;;;;5.03;2.17;;;;;;;17.75;56.68;100010.75;5067784;28;20199;-63
2023/03/22 09:36:06;;;;;;;2.90;1.83;;;;;;;17.76;56.46;100009.53;5036539;28;20207;-63
2023/03/22 09:38:34;;;;;;;3.00;1.93;;;;;;;17.81;56.35;100012.06;5036826;28;20433;-62
2023/03/22 09:41:02;;;;;;;4.13;2.00;;;;;;;17.79;56.29;100000.22;5049156;28;20432;-63
2023/03/22 09:43:35;;;;;;;2.60;1.77;;;;;;;17.73;56.36;99995.22;5074626;28;20872;-63
2023/03/22 09:46:01;;;;;;;2.83;1.67;;;;;;;17.77;56.65;99996.09;5041653;28;20475;-63
2023/03/22 09:48:29;;;;;;;2.97;1.67;;;;;;;17.80;56.35;99996.16;5038998;28;20781;-63
2023/03/22 09:50:55;;;;;;;2.63;1.50;;;;;;;17.86;55.98;99994.59;5073177;28;20310;-63
2023/03/22 09:53:22;;;;;;;3.57;1.90;;;;;;;17.82;56.45;99982.31;5056678;28;20445;-63
2023/03/22 09:55:58;;;;;;;3.27;2.03;;;;;;;17.83;56.08;99988.84;5034867;28;20251;-63
2023/03/22 09:58:26;;;;;;;3.03;1.93;;;;;;;17.84;55.72;99984.78;5038886;28;20795;-63
2023/03/22 10:01:00;;;;;;;2.47;1.77;;;;;;;17.81;56.54;99983.50;5052725;28;20414;-64
2023/03/22 10:03:29;;;;;;;3.30;1.90;;;;;;;17.80;56.52;99984.72;5018890;28;20724;-63
2023/03/22 10:06:25;;;;;;;3.60;1.70;;;;;;;17.79;56.39;99985.94;5084021;28;20451;-64
2023/03/22 10:09:08;;;;;;;3.33;2.13;;;;;;;17.80;56.18;99984.72;5093879;28;20412;-64
2023/03/22 10:11:41;;;;;;;2.53;1.63;;;;;;;17.81;56.61;99980.66;5094593;28;20412;-64
2023/03/22 10:14:26;;;;;;;3.60;2.00;;;;;;;17.79;56.91;99974.50;5049534;28;20891;-64
2023/03/22 10:16:52;;;;;;;3.20;2.10;;;;;;;17.82;56.36;99973.75;5038554;28;20432;-63
2023/03/22 10:19:25;;;;;;;3.30;1.60;;;;;;;17.81;56.55;99969.22;5053439;28;20541;-63
2023/03/22 10:21:51;;;;;;;3.83;1.90;;;;;;;17.88;56.58;99957.09;5038036;28;20183;-63
2023/03/22 10:24:26;;;;;;;5.73;2.03;;;;;;;17.83;56.44;99963.16;5035253;28;20897;-63
2023/03/22 10:26:52;;;;;;;3.70;2.07;;;;;;;17.84;56.60;99954.19;5034620;28;20156;-63
2023/03/22 10:29:32;;;;;;;2.50;1.60;;;;;;;17.83;56.38;99946.84;5054621;28;20512;-63
2023/03/22 10:32:15;;;;;;;3.67;1.80;;;;;;;17.84;56.74;99953.38;5062974;28;20189;-63
2023/03/22 10:34:42;;;;;;;5.20;2.10;;;;;;;17.86;56.40;99948.09;5062126;28;20503;-63
2023/03/22 10:37:30;;;;;;;3.20;1.77;;;;;;;17.84;56.43;99957.06;5052589;28;20828;-64
2023/03/22 10:39:57;;;;;;;3.50;1.70;;;;;;;17.84;56.64;99950.50;5040539;28;20524;-63
2023/03/22 10:42:27;;;;;;;3.77;1.80;;;;;;;17.84;56.60;99942.78;5035506;28;20419;-64
2023/03/22 10:45:12;;;;;;;4.70;2.13;;;;;;;17.85;56.46;99944.41;5034682;28;20497;-64
2023/03/22 10:47:59;;;;;;;5.20;1.83;;;;;;;17.86;56.39;99943.19;5020923;28;20466;-64
2023/03/22 10:50:33;;;;;;;4.20;2.27;;;;;;;17.86;56.44;99933.81;5020196;28;20450;-64
2023/03/22 10:53:25;;;;;;;3.97;2.10;;;;;;;17.89;56.34;99941.59;5032547;28;20444;-64
2023/03/22 10:55:51;;;;;;;4.77;2.23;;;;;;;17.86;56.57;99943.19;5035112;28;20438;-64
2023/03/22 10:58:20;;;;;;;4.40;1.97;;;;;;;17.85;56.28;99938.69;5054379;28;20422;-63
2023/03/22 11:00:47;;;;;;;6.00;2.20;;;;;;;17.91;56.97;99934.31;5058787;28;20190;-63
2023/03/22 11:03:35;;;;;;;5.07;2.77;;;;;;;17.84;56.83;99928.50;5062692;28;20433;-63
2023/03/22 11:06:01;;;;;;;8.70;2.17;;;;;;;17.91;56.86;99919.22;5093740;28;20424;-63
2023/03/22 11:08:27;;;;;;;7.30;2.10;;;;;;;17.91;56.82;99917.16;5077012;28;20441;-63
2023/03/22 11:10:54;;;;;;;8.53;2.40;;;;;;;17.87;56.92;99916.31;5072602;28;20534;-63
2023/03/22 11:13:21;;;;;;;6.03;2.43;;;;;;;17.86;56.95;99911.78;5068808;28;20214;-63
2023/03/22 11:15:54;;;;;;;4.33;2.00;;;;;;;17.87;57.07;99919.19;5056135;28;20456;-63
2023/03/22 11:18:20;;;;;;;4.43;1.93;;;;;;;17.85;57.05;99918.72;5038330;28;20414;-63
2023/03/22 11:20:57;;;;;;;5.93;2.30;;;;;;;17.83;56.81;99926.84;5057799;28;20983;-63
2023/03/22 11:23:23;;;;;;;4.40;1.97;;;;;;;17.86;56.27;99920.34;5041554;28;20190;-64
2023/03/22 11:25:49;;;;;;;5.97;1.83;;;;;;;17.88;56.68;99911.41;5038797;28;20438;-64
2023/03/22 11:28:21;;;;;;;12.57;2.53;;;;;;;17.85;57.03;99912.19;5041457;28;20546;-64
2023/03/22 11:31:07;;;;;;;10.30;1.60;;;;;;;17.88;57.09;99909.38;5058518;28;20201;-64
2023/03/22 11:33:33;;;;;;;4.43;1.83;;;;;;;17.90;56.69;99912.66;5049340;28;20532;-63